sensor_id;sensor_type;location;lat;lon;timestamp;pressure;altitude;pressure_sealevel;temperature;humidity
50702;BME280;36670;50.094;8.496;2023-04-26T00:00:33;100505.16;;;7.46;54.21
50702;BME280;36670;50.094;8.496;2023-04-26T00:02:59;100511.56;;;7.21;54.41
50702;BME280;36670;50.094;8.496;2023-04-26T00:05:24;100508.41;;;7.17;54.58
50702;BME280;36670;50.094;8.496;2023-04-26T00:07:50;100505.66;;;7.17;54.81
50702;BME280;36670;50.094;8.496;2023-04-26T00:10:15;100515.03;;;7.10;55.44
50702;BME280;36670;50.094;8.496;2023-04-26T00:12:40;100511.84;;;7.13;55.24
50702;BME280;36670;50.094;8.496;2023-04-26T00:15:07;100517.06;;;7.21;54.65
50702;BME280;36670;50.094;8.496;2023-04-26T00:17:33;100516.47;;;7.12;54.50
50702;BME280;36670;50.094;8.496;2023-04-26T00:19:59;100523.41;;;6.90;55.55
50702;BME280;36670;50.094;8.496;2023-04-26T00:22:24;100523.88;;;6.55;57.38
50702;BME280;36670;50.094;8.496;2023-04-26T00:24:50;100521.88;;;6.69;56.31
50702;BME280;36670;50.094;8.496;2023-04-26T00:27:15;100525.38;;;6.82;56.00
50702;BME280;36670;50.094;8.496;2023-04-26T00:29:41;100520.41;;;6.98;55.74
50702;BME280;36670;50.094;8.496;2023-04-26T00:32:06;100516.59;;;6.99;55.51
50702;BME280;36670;50.094;8.496;2023-04-26T00:34:33;100518.09;;;6.70;57.32
50702;BME280;36670;50.094;8.496;2023-04-26T00:36:59;100518.00;;;6.76;55.83
50702;BME280;36670;50.094;8.496;2023-04-26T00:39:24;100516.63;;;6.67;56.87
50702;BME280;36670;50.094;8.496;2023-04-26T00:41:50;100524.00;;;6.66;56.22
50702;BME280;36670;50.094;8.496;2023-04-26T00:44:16;100517.25;;;6.62;56.29
50702;BME280;36670;50.094;8.496;2023-04-26T00:46:42;100517.94;;;6.58;56.72
50702;BME280;36670;50.094;8.496;2023-04-26T00:49:07;100517.28;;;6.30;57.47
50702;BME280;36670;50.094;8.496;2023-04-26T00:51:34;100520.78;;;6.44;57.01
50702;BME280;36670;50.094;8.496;2023-04-26T00:54:00;100522.84;;;6.49;56.85
50702;BME280;36670;50.094;8.496;2023-04-26T00:56:26;100515.06;;;6.46;57.09
50702;BME280;36670;50.094;8.496;2023-04-26T00:58:51;100527.22;;;6.57;56.61
50702;BME280;36670;50.094;8.496;2023-04-26T01:01:16;100520.47;;;6.21;57.83
50702;BME280;36670;50.094;8.496;2023-04-26T01:03:42;100516.91;;;6.13;58.13
50702;BME280;36670;50.094;8.496;2023-04-26T01:06:09;100515.41;;;6.18;58.02
50702;BME280;36670;50.094;8.496;2023-04-26T01:08:35;100518.31;;;6.36;57.89
50702;BME280;36670;50.094;8.496;2023-04-26T01:11:01;100522.75;;;6.30;57.92
50702;BME280;36670;50.094;8.496;2023-04-26T01:13:27;100510.66;;;6.45;57.72
50702;BME280;36670;50.094;8.496;2023-04-26T01:15:54;100514.34;;;6.25;57.66
50702;BME280;36670;50.094;8.496;2023-04-26T01:18:20;100519.38;;;6.28;58.08
50702;BME280;36670;50.094;8.496;2023-04-26T01:20:45;100523.00;;;6.22;58.35
50702;BME280;36670;50.094;8.496;2023-04-26T01:23:11;100520.44;;;6.27;58.28
50702;BME280;36670;50.094;8.496;2023-04-26T01:25:36;100518.19;;;6.49;57.56
50702;BME280;36670;50.094;8.496;2023-04-26T01:28:03;100513.13;;;6.53;57.65
50702;BME280;36670;50.094;8.496;2023-04-26T01:30:28;100512.28;;;6.53;57.44
50702;BME280;36670;50.094;8.496;2023-04-26T01:32:54;100505.00;;;6.33;58.12
50702;BME280;36670;50.094;8.496;2023-04-26T01:35:20;100514.91;;;6.34;57.93
50702;BME280;36670;50.094;8.496;2023-04-26T01:37:45;100514.97;;;6.21;57.93
50702;BME280;36670;50.094;8.496;2023-04-26T01:40:10;100517.91;;;6.26;58.17
50702;BME280;36670;50.094;8.496;2023-04-26T01:42:36;100511.81;;;6.24;57.97
50702;BME280;36670;50.094;8.496;2023-04-26T01:45:01;100518.97;;;6.25;58.28
50702;BME280;36670;50.094;8.496;2023-04-26T01:47:27;100528.53;;;6.15;58.31
50702;BME280;36670;50.094;8.496;2023-04-26T01:49:52;100524.75;;;6.10;58.96
50702;BME280;36670;50.094;8.496;2023-04-26T01:52:18;100524.06;;;6.21;58.35
50702;BME280;36670;50.094;8.496;2023-04-26T01:54:43;100518.91;;;6.38;58.50
50702;BME280;36670;50.094;8.496;2023-04-26T01:57:08;100524.88;;;6.28;58.52
50702;BME280;36670;50.094;8.496;2023-04-26T01:59:34;100535.69;;;6.17;58.95
50702;BME280;36670;50.094;8.496;2023-04-26T02:01:59;100526.03;;;6.01;59.58
50702;BME280;36670;50.094;8.496;2023-04-26T02:04:25;100527.72;;;5.95;59.59
50702;BME280;36670;50.094;8.496;2023-04-26T02:06:50;100532.16;;;5.96;59.21
50702;BME280;36670;50.094;8.496;2023-04-26T02:09:15;100536.41;;;5.78;60.13
50702;BME280;36670;50.094;8.496;2023-04-26T02:11:41;100537.06;;;5.80;59.81
50702;BME280;36670;50.094;8.496;2023-04-26T02:14:06;100533.69;;;5.72;60.21
50702;BME280;36670;50.094;8.496;2023-04-26T02:16:31;100538.72;;;5.81;59.70
50702;BME280;36670;50.094;8.496;2023-04-26T02:18:57;100528.41;;;5.84;60.08
50702;BME280;36670;50.094;8.496;2023-04-26T02:21:23;100538.78;;;5.68;60.68
50702;BME280;36670;50.094;8.496;2023-04-26T02:23:49;100537.31;;;5.59;60.89
50702;BME280;36670;50.094;8.496;2023-04-26T02:26:14;100539.88;;;5.47;61.42
50702;BME280;36670;50.094;8.496;2023-04-26T02:28:39;100540.69;;;5.61;60.97
50702;BME280;36670;50.094;8.496;2023-04-26T02:31:06;100539.63;;;5.55;61.28
50702;BME280;36670;50.094;8.496;2023-04-26T02:33:31;100536.25;;;5.53;61.50
50702;BME280;36670;50.094;8.496;2023-04-26T02:35:57;100536.88;;;5.69;60.84
50702;BME280;36670;50.094;8.496;2023-04-26T02:38:26;100537.75;;;5.56;61.04
50702;BME280;36670;50.094;8.496;2023-04-26T02:41:01;100533.28;;;5.68;60.46
50702;BME280;36670;50.094;8.496;2023-04-26T02:43:27;100533.31;;;5.55;60.93
50702;BME280;36670;50.094;8.496;2023-04-26T02:45:52;100540.91;;;5.46;61.07
50702;BME280;36670;50.094;8.496;2023-04-26T02:48:18;100536.09;;;5.08;62.36
50702;BME280;36670;50.094;8.496;2023-04-26T02:50:43;100535.91;;;5.09;62.18
50702;BME280;36670;50.094;8.496;2023-04-26T02:53:12;100527.44;;;5.38;61.56
50702;BME280;36670;50.094;8.496;2023-04-26T02:55:38;100524.28;;;5.41;61.49
50702;BME280;36670;50.094;8.496;2023-04-26T02:58:03;100526.19;;;5.47;61.05
50702;BME280;36670;50.094;8.496;2023-04-26T03:00:29;100529.09;;;5.52;61.28
50702;BME280;36670;50.094;8.496;2023-04-26T03:02:54;100526.53;;;5.71;60.76
50702;BME280;36670;50.094;8.496;2023-04-26T03:05:21;100528.03;;;5.60;60.91
50702;BME280;36670;50.094;8.496;2023-04-26T03:07:46;100532.69;;;5.53;61.24
50702;BME280;36670;50.094;8.496;2023-04-26T03:10:12;100532.44;;;5.68;60.87
50702;BME280;36670;50.094;8.496;2023-04-26T03:12:37;100530.34;;;5.63;61.38
50702;BME280;36670;50.094;8.496;2023-04-26T03:15:03;100529.78;;;5.07;62.37
50702;BME280;36670;50.094;8.496;2023-04-26T03:17:28;100530.84;;;4.93;63.19
50702;BME280;36670;50.094;8.496;2023-04-26T03:19:54;100530.41;;;4.96;63.05
50702;BME280;36670;50.094;8.496;2023-04-26T03:22:19;100519.03;;;4.72;63.78
50702;BME280;36670;50.094;8.496;2023-04-26T03:24:45;100526.84;;;4.82;63.28
50702;BME280;36670;50.094;8.496;2023-04-26T03:27:12;100521.13;;;4.77;64.13
50702;BME280;36670;50.094;8.496;2023-04-26T03:29:37;100517.53;;;4.63;64.13
50702;BME280;36670;50.094;8.496;2023-04-26T03:32:02;100515.03;;;4.95;63.13
50702;BME280;36670;50.094;8.496;2023-04-26T03:34:28;100518.63;;;5.22;62.54
50702;BME280;36670;50.094;8.496;2023-04-26T03:36:53;100518.84;;;5.21;62.27
50702;BME280;36670;50.094;8.496;2023-04-26T03:39:18;100523.88;;;5.24;62.16
50702;BME280;36670;50.094;8.496;2023-04-26T03:41:44;100524.31;;;5.21;61.98
50702;BME280;36670;50.094;8.496;2023-04-26T03:44:10;100522.00;;;5.04;62.45
50702;BME280;36670;50.094;8.496;2023-04-26T03:46:36;100520.53;;;5.02;62.98
50702;BME280;36670;50.094;8.496;2023-04-26T03:49:01;100520.50;;;5.42;61.99
50702;BME280;36670;50.094;8.496;2023-04-26T03:51:27;100519.41;;;5.50;61.68
50702;BME280;36670;50.094;8.496;2023-04-26T03:53:53;100521.09;;;5.44;61.53
50702;BME280;36670;50.094;8.496;2023-04-26T03:56:18;100524.06;;;5.42;61.55
50702;BME280;36670;50.094;8.496;2023-04-26T03:58:45;100530.59;;;5.41;61.69
50702;BME280;36670;50.094;8.496;2023-04-26T04:01:11;100523.22;;;5.49;61.29
50702;BME280;36670;50.094;8.496;2023-04-26T04:03:36;100522.56;;;5.60;61.51
50702;BME280;36670;50.094;8.496;2023-04-26T04:06:01;100515.41;;;5.52;61.38
50702;BME280;36670;50.094;8.496;2023-04-26T04:08:27;100506.94;;;5.67;60.59
50702;BME280;36670;50.094;8.496;2023-04-26T04:10:52;100518.56;;;5.62;61.00
50702;BME280;36670;50.094;8.496;2023-04-26T04:13:17;100519.63;;;5.41;61.68
50702;BME280;36670;50.094;8.496;2023-04-26T04:15:43;100516.09;;;5.14;62.03
50702;BME280;36670;50.094;8.496;2023-04-26T04:18:08;100520.94;;;5.19;62.34
50702;BME280;36670;50.094;8.496;2023-04-26T04:20:33;100520.09;;;5.25;61.79
50702;BME280;36670;50.094;8.496;2023-04-26T04:22:58;100521.16;;;5.24;62.37
50702;BME280;36670;50.094;8.496;2023-04-26T04:25:26;100528.31;;;5.18;62.69
50702;BME280;36670;50.094;8.496;2023-04-26T04:27:51;100534.84;;;4.90;63.47
50702;BME280;36670;50.094;8.496;2023-04-26T04:30:17;100526.19;;;5.27;62.82
50702;BME280;36670;50.094;8.496;2023-04-26T04:32:42;100530.19;;;5.51;62.01
50702;BME280;36670;50.094;8.496;2023-04-26T04:35:10;100533.97;;;5.43;62.63
50702;BME280;36670;50.094;8.496;2023-04-26T04:37:35;100533.31;;;5.48;62.85
50702;BME280;36670;50.094;8.496;2023-04-26T04:40:02;100531.63;;;5.54;62.18
50702;BME280;36670;50.094;8.496;2023-04-26T04:42:28;100543.88;;;5.38;62.29
50702;BME280;36670;50.094;8.496;2023-04-26T04:44:54;100551.00;;;5.59;61.63
50702;BME280;36670;50.094;8.496;2023-04-26T04:47:20;100549.25;;;5.98;61.50
50702;BME280;36670;50.094;8.496;2023-04-26T04:49:45;100555.44;;;6.32;61.46
50702;BME280;36670;50.094;8.496;2023-04-26T04:52:11;100545.56;;;6.63;60.89
50702;BME280;36670;50.094;8.496;2023-04-26T04:54:37;100562.41;;;6.98;59.98
50702;BME280;36670;50.094;8.496;2023-04-26T04:57:02;100555.94;;;7.43;58.93
50702;BME280;36670;50.094;8.496;2023-04-26T04:59:28;100561.75;;;7.54;58.69
50702;BME280;36670;50.094;8.496;2023-04-26T05:01:53;100563.16;;;7.81;58.28
50702;BME280;36670;50.094;8.496;2023-04-26T05:04:19;100563.75;;;7.83;57.55
50702;BME280;36670;50.094;8.496;2023-04-26T05:06:44;100568.25;;;7.34;57.88
50702;BME280;36670;50.094;8.496;2023-04-26T05:09:10;100569.97;;;7.54;57.97
50702;BME280;36670;50.094;8.496;2023-04-26T05:11:35;100566.34;;;7.34;58.17
50702;BME280;36670;50.094;8.496;2023-04-26T05:14:01;100568.28;;;7.52;57.59
50702;BME280;36670;50.094;8.496;2023-04-26T05:16:26;100565.53;;;7.52;58.06
50702;BME280;36670;50.094;8.496;2023-04-26T05:18:52;100577.47;;;7.65;57.86
50702;BME280;36670;50.094;8.496;2023-04-26T05:21:17;100585.69;;;7.46;57.97
50702;BME280;36670;50.094;8.496;2023-04-26T05:23:42;100584.63;;;7.91;58.04
50702;BME280;36670;50.094;8.496;2023-04-26T05:26:15;100572.44;;;8.85;56.87
50702;BME280;36670;50.094;8.496;2023-04-26T05:28:41;100582.38;;;9.87;54.96
50702;BME280;36670;50.094;8.496;2023-04-26T05:31:10;100579.00;;;10.62;53.08
50702;BME280;36670;50.094;8.496;2023-04-26T05:33:36;100585.50;;;11.47;50.72
50702;BME280;36670;50.094;8.496;2023-04-26T05:36:01;100574.78;;;11.90;51.76
50702;BME280;36670;50.094;8.496;2023-04-26T05:38:27;100578.38;;;13.01;47.56
50702;BME280;36670;50.094;8.496;2023-04-26T05:40:52;100581.03;;;12.91;47.78
50702;BME280;36670;50.094;8.496;2023-04-26T05:43:18;100578.06;;;13.57;47.13
50702;BME280;36670;50.094;8.496;2023-04-26T05:45:52;100585.84;;;14.61;46.08
50702;BME280;36670;50.094;8.496;2023-04-26T05:48:19;100580.81;;;14.00;44.86
50702;BME280;36670;50.094;8.496;2023-04-26T05:50:44;100578.53;;;14.40;44.30
50702;BME280;36670;50.094;8.496;2023-04-26T05:53:09;100574.31;;;15.88;43.28
50702;BME280;36670;50.094;8.496;2023-04-26T05:55:35;100578.44;;;15.91;42.51
50702;BME280;36670;50.094;8.496;2023-04-26T05:58:01;100584.31;;;15.68;42.49
50702;BME280;36670;50.094;8.496;2023-04-26T06:00:29;100582.97;;;16.57;41.68
50702;BME280;36670;50.094;8.496;2023-04-26T06:02:55;100585.81;;;17.42;39.76
50702;BME280;36670;50.094;8.496;2023-04-26T06:05:20;100589.25;;;17.63;39.43
50702;BME280;36670;50.094;8.496;2023-04-26T06:07:46;100594.59;;;17.25;37.90
50702;BME280;36670;50.094;8.496;2023-04-26T06:10:11;100597.03;;;16.21;38.09
50702;BME280;36670;50.094;8.496;2023-04-26T06:12:37;100593.72;;;16.19;39.31
50702;BME280;36670;50.094;8.496;2023-04-26T06:15:03;100583.28;;;17.74;37.51
50702;BME280;36670;50.094;8.496;2023-04-26T06:17:28;100586.13;;;17.69;37.42
50702;BME280;36670;50.094;8.496;2023-04-26T06:19:54;100590.22;;;16.58;38.66
50702;BME280;36670;50.094;8.496;2023-04-26T06:22:19;100596.00;;;15.91;37.96
50702;BME280;36670;50.094;8.496;2023-04-26T06:24:45;100589.13;;;17.44;36.76
50702;BME280;36670;50.094;8.496;2023-04-26T06:27:11;100603.16;;;16.94;37.54
50702;BME280;36670;50.094;8.496;2023-04-26T06:29:36;100596.25;;;17.95;36.60
50702;BME280;36670;50.094;8.496;2023-04-26T06:32:01;100593.97;;;17.97;35.63
50702;BME280;36670;50.094;8.496;2023-04-26T06:34:27;100602.59;;;16.86;37.92
50702;BME280;36670;50.094;8.496;2023-04-26T06:36:52;100601.81;;;17.26;36.34
50702;BME280;36670;50.094;8.496;2023-04-26T06:39:17;100607.50;;;17.50;36.94
50702;BME280;36670;50.094;8.496;2023-04-26T06:41:43;100601.19;;;17.68;37.36
50702;BME280;36670;50.094;8.496;2023-04-26T06:44:08;100606.63;;;16.65;37.78
50702;BME280;36670;50.094;8.496;2023-04-26T06:46:33;100602.13;;;16.03;38.20
50702;BME280;36670;50.094;8.496;2023-04-26T06:49:00;100605.19;;;15.76;38.59
50702;BME280;36670;50.094;8.496;2023-04-26T06:51:25;100602.13;;;15.26;39.02
50702;BME280;36670;50.094;8.496;2023-04-26T06:53:51;100604.25;;;14.73;39.37
50702;BME280;36670;50.094;8.496;2023-04-26T06:56:16;100603.91;;;13.63;40.76
50702;BME280;36670;50.094;8.496;2023-04-26T06:58:58;100604.00;;;13.78;41.71
50702;BME280;36670;50.094;8.496;2023-04-26T07:01:24;100600.63;;;13.71;42.38
50702;BME280;36670;50.094;8.496;2023-04-26T07:03:50;100604.44;;;13.32;43.37
50702;BME280;36670;50.094;8.496;2023-04-26T07:06:18;100607.47;;;13.96;43.21
50702;BME280;36670;50.094;8.496;2023-04-26T07:08:43;100605.25;;;13.98;43.39
50702;BME280;36670;50.094;8.496;2023-04-26T07:11:11;100613.72;;;14.19;42.84
50702;BME280;36670;50.094;8.496;2023-04-26T07:13:36;100607.31;;;13.38;43.74
50702;BME280;36670;50.094;8.496;2023-04-26T07:16:01;100611.94;;;14.02;43.56
50702;BME280;36670;50.094;8.496;2023-04-26T07:18:26;100607.59;;;14.22;43.75
50702;BME280;36670;50.094;8.496;2023-04-26T07:20:52;100609.88;;;14.30;43.05
50702;BME280;36670;50.094;8.496;2023-04-26T07:23:17;100606.38;;;14.55;42.08
50702;BME280;36670;50.094;8.496;2023-04-26T07:25:42;100606.31;;;14.40;42.23
50702;BME280;36670;50.094;8.496;2023-04-26T07:28:08;100604.47;;;14.08;42.39
50702;BME280;36670;50.094;8.496;2023-04-26T07:30:33;100604.28;;;14.25;42.89
50702;BME280;36670;50.094;8.496;2023-04-26T07:32:58;100601.88;;;14.44;43.08
50702;BME280;36670;50.094;8.496;2023-04-26T07:35:27;100601.56;;;14.40;42.44
50702;BME280;36670;50.094;8.496;2023-04-26T07:37:55;100605.09;;;14.20;42.02
50702;BME280;36670;50.094;8.496;2023-04-26T07:40:20;100598.25;;;14.38;41.59
50702;BME280;36670;50.094;8.496;2023-04-26T07:42:48;100598.84;;;14.50;40.73
50702;BME280;36670;50.094;8.496;2023-04-26T07:45:14;100603.50;;;14.34;40.77
50702;BME280;36670;50.094;8.496;2023-04-26T07:47:40;100589.41;;;13.98;40.33
50702;BME280;36670;50.094;8.496;2023-04-26T07:50:06;100591.25;;;14.25;40.19
50702;BME280;36670;50.094;8.496;2023-04-26T07:52:34;100589.13;;;14.48;40.67
50702;BME280;36670;50.094;8.496;2023-04-26T07:55:09;100581.00;;;14.31;40.36
50702;BME280;36670;50.094;8.496;2023-04-26T07:57:35;100585.75;;;14.46;41.24
50702;BME280;36670;50.094;8.496;2023-04-26T08:00:00;100593.53;;;14.39;39.63
50702;BME280;36670;50.094;8.496;2023-04-26T08:02:25;100595.56;;;14.00;39.20
50702;BME280;36670;50.094;8.496;2023-04-26T08:04:51;100594.34;;;13.86;39.35
50702;BME280;36670;50.094;8.496;2023-04-26T08:07:20;100578.56;;;13.22;40.41
50702;BME280;36670;50.094;8.496;2023-04-26T08:09:45;100583.84;;;13.23;40.24
50702;BME280;36670;50.094;8.496;2023-04-26T08:12:11;100585.34;;;13.69;40.33
50702;BME280;36670;50.094;8.496;2023-04-26T08:14:37;100596.78;;;13.77;40.57
50702;BME280;36670;50.094;8.496;2023-04-26T08:17:03;100593.13;;;13.72;40.66
50702;BME280;36670;50.094;8.496;2023-04-26T08:19:28;100587.84;;;14.13;39.94
50702;BME280;36670;50.094;8.496;2023-04-26T08:21:57;100599.13;;;14.49;39.68
50702;BME280;36670;50.094;8.496;2023-04-26T08:24:22;100595.41;;;14.23;39.60
50702;BME280;36670;50.094;8.496;2023-04-26T08:26:47;100599.66;;;14.46;39.46
50702;BME280;36670;50.094;8.496;2023-04-26T08:29:12;100596.44;;;14.70;38.93
50702;BME280;36670;50.094;8.496;2023-04-26T08:31:39;100601.53;;;14.30;38.31
50702;BME280;36670;50.094;8.496;2023-04-26T08:34:04;100588.69;;;14.13;39.11
50702;BME280;36670;50.094;8.496;2023-04-26T08:36:30;100597.19;;;13.96;38.05
50702;BME280;36670;50.094;8.496;2023-04-26T08:38:59;100585.84;;;14.03;38.73
50702;BME280;36670;50.094;8.496;2023-04-26T08:41:27;100591.53;;;14.29;37.58
50702;BME280;36670;50.094;8.496;2023-04-26T08:43:55;100587.00;;;14.07;37.38
50702;BME280;36670;50.094;8.496;2023-04-26T08:46:26;100585.31;;;14.06;37.44
50702;BME280;36670;50.094;8.496;2023-04-26T08:49:30;100585.50;;;13.94;37.69
50702;BME280;36670;50.094;8.496;2023-04-26T08:52:00;100590.53;;;14.50;37.35
50702;BME280;36670;50.094;8.496;2023-04-26T08:54:30;100583.78;;;14.36;37.84
50702;BME280;36670;50.094;8.496;2023-04-26T08:57:00;100583.69;;;14.68;37.47
50702;BME280;36670;50.094;8.496;2023-04-26T08:59:46;100573.47;;;15.15;36.88
50702;BME280;36670;50.094;8.496;2023-04-26T09:02:20;100567.06;;;15.05;36.61
50702;BME280;36670;50.094;8.496;2023-04-26T09:04:46;100563.97;;;14.75;35.82
50702;BME280;36670;50.094;8.496;2023-04-26T09:07:28;100563.13;;;14.80;36.81
50702;BME280;36670;50.094;8.496;2023-04-26T09:09:57;100562.59;;;14.88;36.58
50702;BME280;36670;50.094;8.496;2023-04-26T09:12:23;100575.63;;;14.14;35.88
50702;BME280;36670;50.094;8.496;2023-04-26T09:14:52;100568.09;;;13.61;37.12
50702;BME280;36670;50.094;8.496;2023-04-26T09:17:30;100572.84;;;14.14;37.60
50702;BME280;36670;50.094;8.496;2023-04-26T09:19:57;100571.63;;;14.52;37.75
50702;BME280;36670;50.094;8.496;2023-04-26T09:22:33;100564.84;;;14.96;37.08
50702;BME280;36670;50.094;8.496;2023-04-26T09:25:02;100564.56;;;14.98;36.91
50702;BME280;36670;50.094;8.496;2023-04-26T09:30:12;100563.41;;;15.97;36.00
50702;BME280;36670;50.094;8.496;2023-04-26T09:32:55;100561.31;;;16.44;36.01
50702;BME280;36670;50.094;8.496;2023-04-26T09:37:55;100558.72;;;15.87;34.23
50702;BME280;36670;50.094;8.496;2023-04-26T09:40:21;100556.16;;;15.96;34.56
50702;BME280;36670;50.094;8.496;2023-04-26T09:42:46;100545.34;;;15.58;33.90
50702;BME280;36670;50.094;8.496;2023-04-26T09:45:20;100544.22;;;15.69;33.55
50702;BME280;36670;50.094;8.496;2023-04-26T09:47:46;100546.34;;;16.19;34.06
50702;BME280;36670;50.094;8.496;2023-04-26T09:50:11;100543.41;;;15.48;34.69
50702;BME280;36670;50.094;8.496;2023-04-26T09:52:42;100543.16;;;15.04;34.34
50702;BME280;36670;50.094;8.496;2023-04-26T09:55:08;100545.66;;;15.15;34.38
50702;BME280;36670;50.094;8.496;2023-04-26T09:57:41;100556.22;;;15.13;34.35
50702;BME280;36670;50.094;8.496;2023-04-26T10:00:09;100551.22;;;15.26;35.17
50702;BME280;36670;50.094;8.496;2023-04-26T10:02:36;100545.94;;;15.24;34.73
50702;BME280;36670;50.094;8.496;2023-04-26T10:05:03;100547.63;;;15.41;34.53
50702;BME280;36670;50.094;8.496;2023-04-26T10:07:31;100542.84;;;15.51;35.10
50702;BME280;36670;50.094;8.496;2023-04-26T10:09:59;100543.97;;;15.04;34.52
50702;BME280;36670;50.094;8.496;2023-04-26T10:12:25;100541.16;;;14.73;35.03
50702;BME280;36670;50.094;8.496;2023-04-26T10:14:51;100535.84;;;14.66;34.22
50702;BME280;36670;50.094;8.496;2023-04-26T10:17:18;100537.56;;;14.83;34.39
50702;BME280;36670;50.094;8.496;2023-04-26T10:19:43;100540.59;;;14.66;34.82
50702;BME280;36670;50.094;8.496;2023-04-26T10:22:16;100541.75;;;14.96;35.26
50702;BME280;36670;50.094;8.496;2023-04-26T10:24:47;100545.63;;;14.90;35.20
50702;BME280;36670;50.094;8.496;2023-04-26T10:27:12;100542.31;;;15.08;35.30
50702;BME280;36670;50.094;8.496;2023-04-26T10:32:24;100535.38;;;15.16;34.25
50702;BME280;36670;50.094;8.496;2023-04-26T10:35:09;100532.56;;;14.90;34.07
50702;BME280;36670;50.094;8.496;2023-04-26T10:37:44;100525.06;;;14.85;34.93
50702;BME280;36670;50.094;8.496;2023-04-26T10:40:23;100528.44;;;15.18;34.72
50702;BME280;36670;50.094;8.496;2023-04-26T10:42:48;100524.25;;;15.31;33.37
50702;BME280;36670;50.094;8.496;2023-04-26T10:45:34;100523.41;;;15.05;34.57
50702;BME280;36670;50.094;8.496;2023-04-26T10:59:08;100505.22;;;14.51;34.53
50702;BME280;36670;50.094;8.496;2023-04-26T11:01:34;100510.88;;;14.97;33.47
50702;BME280;36670;50.094;8.496;2023-04-26T11:04:04;100505.53;;;14.55;34.89
50702;BME280;36670;50.094;8.496;2023-04-26T11:06:49;100505.88;;;14.79;34.88
50702;BME280;36670;50.094;8.496;2023-04-26T11:09:34;100507.25;;;14.81;33.89
50702;BME280;36670;50.094;8.496;2023-04-26T11:12:00;100495.56;;;14.69;34.61
50702;BME280;36670;50.094;8.496;2023-04-26T11:14:40;100504.19;;;14.67;35.27
50702;BME280;36670;50.094;8.496;2023-04-26T11:17:07;100504.50;;;15.23;34.70
50702;BME280;36670;50.094;8.496;2023-04-26T11:19:33;100504.19;;;15.55;34.41
50702;BME280;36670;50.094;8.496;2023-04-26T11:22:06;100503.34;;;15.39;34.12
50702;BME280;36670;50.094;8.496;2023-04-26T11:24:41;100489.75;;;15.27;34.01
50702;BME280;36670;50.094;8.496;2023-04-26T11:27:10;100486.34;;;15.66;34.37
50702;BME280;36670;50.094;8.496;2023-04-26T11:29:42;100487.66;;;16.00;33.98
50702;BME280;36670;50.094;8.496;2023-04-26T11:32:08;100483.53;;;15.77;33.30
50702;BME280;36670;50.094;8.496;2023-04-26T11:34:36;100475.50;;;15.70;33.38
50702;BME280;36670;50.094;8.496;2023-04-26T11:37:04;100486.59;;;15.75;33.43
50702;BME280;36670;50.094;8.496;2023-04-26T11:39:34;100479.13;;;15.45;33.26
50702;BME280;36670;50.094;8.496;2023-04-26T11:42:08;100478.63;;;15.32;33.71
50702;BME280;36670;50.094;8.496;2023-04-26T11:44:35;100469.72;;;15.25;33.57
50702;BME280;36670;50.094;8.496;2023-04-26T11:47:02;100479.66;;;15.67;33.15
50702;BME280;36670;50.094;8.496;2023-04-26T11:49:31;100475.16;;;15.77;32.74
50702;BME280;36670;50.094;8.496;2023-04-26T11:51:57;100476.44;;;15.09;33.79
50702;BME280;36670;50.094;8.496;2023-04-26T11:54:30;100473.34;;;14.74;33.29
50702;BME280;36670;50.094;8.496;2023-04-26T11:56:56;100473.78;;;14.20;34.25
50702;BME280;36670;50.094;8.496;2023-04-26T12:00:05;100473.34;;;13.90;34.61
50702;BME280;36670;50.094;8.496;2023-04-26T12:02:34;100476.59;;;13.72;35.48
50702;BME280;36670;50.094;8.496;2023-04-26T12:05:00;100462.94;;;14.23;34.76
50702;BME280;36670;50.094;8.496;2023-04-26T12:07:25;100469.66;;;14.48;34.06
50702;BME280;36670;50.094;8.496;2023-04-26T12:09:51;100468.22;;;14.30;35.10
50702;BME280;36670;50.094;8.496;2023-04-26T12:12:16;100466.38;;;14.61;34.88
50702;BME280;36670;50.094;8.496;2023-04-26T12:14:42;100472.50;;;14.94;33.46
50702;BME280;36670;50.094;8.496;2023-04-26T12:17:09;100470.00;;;15.34;33.96
50702;BME280;36670;50.094;8.496;2023-04-26T12:19:39;100461.97;;;14.96;32.97
50702;BME280;36670;50.094;8.496;2023-04-26T12:22:06;100455.25;;;15.39;33.24
50702;BME280;36670;50.094;8.496;2023-04-26T12:24:32;100453.81;;;15.62;33.56
50702;BME280;36670;50.094;8.496;2023-04-26T12:27:00;100451.53;;;15.74;32.99
50702;BME280;36670;50.094;8.496;2023-04-26T12:29:27;100453.31;;;16.20;32.92
50702;BME280;36670;50.094;8.496;2023-04-26T12:31:54;100444.50;;;16.47;33.46
50702;BME280;36670;50.094;8.496;2023-04-26T12:34:20;100451.06;;;16.67;32.54
50702;BME280;36670;50.094;8.496;2023-04-26T12:36:48;100448.09;;;16.53;32.79
50702;BME280;36670;50.094;8.496;2023-04-26T12:39:14;100451.63;;;16.69;33.09
50702;BME280;36670;50.094;8.496;2023-04-26T12:41:41;100451.66;;;16.59;32.93
50702;BME280;36670;50.094;8.496;2023-04-26T12:44:07;100446.94;;;16.59;32.69
50702;BME280;36670;50.094;8.496;2023-04-26T12:46:33;100446.22;;;16.83;33.03
50702;BME280;36670;50.094;8.496;2023-04-26T12:49:01;100452.47;;;16.64;32.21
50702;BME280;36670;50.094;8.496;2023-04-26T12:51:27;100450.88;;;16.53;31.97
50702;BME280;36670;50.094;8.496;2023-04-26T12:53:52;100443.06;;;16.95;31.48
50702;BME280;36670;50.094;8.496;2023-04-26T12:56:18;100449.69;;;16.14;31.41
50702;BME280;36670;50.094;8.496;2023-04-26T12:58:43;100448.09;;;16.53;31.83
50702;BME280;36670;50.094;8.496;2023-04-26T13:01:11;100444.59;;;17.11;32.08
50702;BME280;36670;50.094;8.496;2023-04-26T13:03:36;100436.03;;;17.02;31.70
50702;BME280;36670;50.094;8.496;2023-04-26T13:06:02;100440.13;;;17.10;31.65
50702;BME280;36670;50.094;8.496;2023-04-26T13:08:27;100445.72;;;17.10;31.47
50702;BME280;36670;50.094;8.496;2023-04-26T13:10:53;100445.84;;;16.95;31.63
50702;BME280;36670;50.094;8.496;2023-04-26T13:13:18;100447.03;;;16.83;31.85